sensor_id;sensor_type;location;lat;lon;timestamp;P1;durP1;ratioP1;P2;durP2;ratioP2
73869;SDS011;64924;42.140;24.762;2023-11-22T00:00:41;30.92;;;16.77;;
73869;SDS011;64924;42.140;24.762;2023-11-22T00:03:07;34.63;;;17.92;;
73869;SDS011;64924;42.140;24.762;2023-11-22T00:05:32;26.40;;;16.65;;
73869;SDS011;64924;42.140;24.762;2023-11-22T00:07:58;29.15;;;16.75;;
73869;SDS011;64924;42.140;24.762;2023-11-22T00:10:23;30.85;;;17.65;;
73869;SDS011;64924;42.140;24.762;2023-11-22T00:12:49;28.05;;;16.20;;
73869;SDS011;64924;42.140;24.762;2023-11-22T00:15:15;32.47;;;16.98;;
73869;SDS011;64924;42.140;24.762;2023-11-22T00:17:43;30.50;;;16.40;;
73869;SDS011;64924;42.140;24.762;2023-11-22T00:20:10;31.58;;;17.27;;
73869;SDS011;64924;42.140;24.762;2023-11-22T00:22:36;28.42;;;17.23;;
73869;SDS011;64924;42.140;24.762;2023-11-22T00:25:02;35.38;;;17.98;;
73869;SDS011;64924;42.140;24.762;2023-11-22T00:27:28;31.35;;;17.20;;
73869;SDS011;64924;42.140;24.762;2023-11-22T00:29:57;26.70;;;16.88;;
73869;SDS011;64924;42.140;24.762;2023-11-22T00:32:23;30.33;;;17.80;;
73869;SDS011;64924;42.140;24.762;2023-11-22T00:34:49;33.08;;;18.20;;
73869;SDS011;64924;42.140;24.762;2023-11-22T00:37:15;31.92;;;17.83;;
73869;SDS011;64924;42.140;24.762;2023-11-22T00:39:41;30.67;;;17.42;;
73869;SDS011;64924;42.140;24.762;2023-11-22T00:42:07;29.85;;;17.42;;
73869;SDS011;64924;42.140;24.762;2023-11-22T00:44:33;32.85;;;18.15;;
73869;SDS011;64924;42.140;24.762;2023-11-22T00:46:58;31.10;;;16.95;;
73869;SDS011;64924;42.140;24.762;2023-11-22T00:49:24;27.88;;;17.15;;
73869;SDS011;64924;42.140;24.762;2023-11-22T00:51:49;31.35;;;17.83;;
73869;SDS011;64924;42.140;24.762;2023-11-22T00:54:16;26.40;;;16.85;;
73869;SDS011;64924;42.140;24.762;2023-11-22T00:56:42;31.83;;;17.73;;
73869;SDS011;64924;42.140;24.762;2023-11-22T00:59:07;28.60;;;16.88;;
73869;SDS011;64924;42.140;24.762;2023-11-22T01:01:33;32.65;;;17.85;;
73869;SDS011;64924;42.140;24.762;2023-11-22T01:03:59;30.40;;;16.13;;
73869;SDS011;64924;42.140;24.762;2023-11-22T01:06:25;28.67;;;17.65;;
73869;SDS011;64924;42.140;24.762;2023-11-22T01:08:50;30.52;;;17.20;;
73869;SDS011;64924;42.140;24.762;2023-11-22T01:11:15;29.65;;;18.33;;
73869;SDS011;64924;42.140;24.762;2023-11-22T01:13:41;29.75;;;17.17;;
73869;SDS011;64924;42.140;24.762;2023-11-22T01:16:08;37.15;;;18.60;;
73869;SDS011;64924;42.140;24.762;2023-11-22T01:18:34;33.60;;;17.65;;
73869;SDS011;64924;42.140;24.762;2023-11-22T01:21:00;29.55;;;17.35;;
73869;SDS011;64924;42.140;24.762;2023-11-22T01:23:25;28.15;;;16.88;;
73869;SDS011;64924;42.140;24.762;2023-11-22T01:25:53;29.88;;;16.88;;
73869;SDS011;64924;42.140;24.762;2023-11-22T01:28:18;28.45;;;14.65;;
73869;SDS011;64924;42.140;24.762;2023-11-22T01:30:44;25.80;;;16.15;;
73869;SDS011;64924;42.140;24.762;2023-11-22T01:33:11;27.08;;;16.00;;
73869;SDS011;64924;42.140;24.762;2023-11-22T01:35:37;22.80;;;15.68;;
73869;SDS011;64924;42.140;24.762;2023-11-22T01:38:03;26.63;;;14.77;;
73869;SDS011;64924;42.140;24.762;2023-11-22T01:40:29;25.95;;;13.25;;
73869;SDS011;64924;42.140;24.762;2023-11-22T01:42:56;25.85;;;15.05;;
73869;SDS011;64924;42.140;24.762;2023-11-22T01:45:22;23.27;;;13.32;;
73869;SDS011;64924;42.140;24.762;2023-11-22T01:47:48;27.25;;;14.43;;
73869;SDS011;64924;42.140;24.762;2023-11-22T01:50:13;24.45;;;14.65;;
73869;SDS011;64924;42.140;24.762;2023-11-22T01:52:39;23.77;;;15.52;;
73869;SDS011;64924;42.140;24.762;2023-11-22T01:55:06;26.20;;;14.88;;
73869;SDS011;64924;42.140;24.762;2023-11-22T01:57:34;22.60;;;15.07;;
73869;SDS011;64924;42.140;24.762;2023-11-22T02:00:01;24.17;;;14.90;;
73869;SDS011;64924;42.140;24.762;2023-11-22T02:02:29;25.70;;;14.82;;
73869;SDS011;64924;42.140;24.762;2023-11-22T02:04:55;23.27;;;13.77;;
73869;SDS011;64924;42.140;24.762;2023-11-22T02:07:21;23.92;;;14.95;;
73869;SDS011;64924;42.140;24.762;2023-11-22T02:09:47;30.83;;;15.38;;
73869;SDS011;64924;42.140;24.762;2023-11-22T02:12:12;27.02;;;15.88;;
73869;SDS011;64924;42.140;24.762;2023-11-22T02:14:38;24.35;;;15.85;;
73869;SDS011;64924;42.140;24.762;2023-11-22T02:17:03;26.67;;;15.80;;
73869;SDS011;64924;42.140;24.762;2023-11-22T02:19:29;26.80;;;16.33;;
73869;SDS011;64924;42.140;24.762;2023-11-22T02:21:58;28.63;;;16.63;;
73869;SDS011;64924;42.140;24.762;2023-11-22T02:24:24;26.15;;;15.55;;
73869;SDS011;64924;42.140;24.762;2023-11-22T02:26:49;28.25;;;16.45;;
73869;SDS011;64924;42.140;24.762;2023-11-22T02:29:15;25.67;;;17.60;;
73869;SDS011;64924;42.140;24.762;2023-11-22T02:31:41;28.65;;;18.40;;
73869;SDS011;64924;42.140;24.762;2023-11-22T02:34:08;29.88;;;17.33;;
73869;SDS011;64924;42.140;24.762;2023-11-22T02:36:34;33.05;;;17.35;;
73869;SDS011;64924;42.140;24.762;2023-11-22T02:38:59;30.00;;;17.58;;
73869;SDS011;64924;42.140;24.762;2023-11-22T02:41:29;28.02;;;17.50;;
73869;SDS011;64924;42.140;24.762;2023-11-22T02:43:57;28.83;;;16.80;;
73869;SDS011;64924;42.140;24.762;2023-11-22T02:46:22;29.10;;;17.75;;
73869;SDS011;64924;42.140;24.762;2023-11-22T02:48:48;25.10;;;16.70;;
73869;SDS011;64924;42.140;24.762;2023-11-22T02:51:14;30.33;;;17.60;;
73869;SDS011;64924;42.140;24.762;2023-11-22T02:53:40;27.38;;;17.15;;
73869;SDS011;64924;42.140;24.762;2023-11-22T02:58:36;29.92;;;16.70;;
73869;SDS011;64924;42.140;24.762;2023-11-22T03:01:01;32.05;;;16.92;;
73869;SDS011;64924;42.140;24.762;2023-11-22T03:03:27;27.83;;;17.77;;
73869;SDS011;64924;42.140;24.762;2023-11-22T03:05:53;30.35;;;16.75;;
73869;SDS011;64924;42.140;24.762;2023-11-22T03:08:19;28.58;;;17.63;;
73869;SDS011;64924;42.140;24.762;2023-11-22T03:10:45;30.83;;;17.33;;
73869;SDS011;64924;42.140;24.762;2023-11-22T03:13:11;28.25;;;16.85;;
73869;SDS011;64924;42.140;24.762;2023-11-22T03:15:36;31.08;;;18.52;;
73869;SDS011;64924;42.140;24.762;2023-11-22T03:18:02;28.77;;;17.58;;
73869;SDS011;64924;42.140;24.762;2023-11-22T03:20:29;28.92;;;18.25;;
73869;SDS011;64924;42.140;24.762;2023-11-22T03:22:57;29.13;;;17.27;;
73869;SDS011;64924;42.140;24.762;2023-11-22T03:25:23;31.83;;;17.98;;
73869;SDS011;64924;42.140;24.762;2023-11-22T03:27:49;43.78;;;22.15;;
73869;SDS011;64924;42.140;24.762;2023-11-22T03:30:14;39.67;;;20.55;;
73869;SDS011;64924;42.140;24.762;2023-11-22T03:32:40;37.63;;;20.33;;
73869;SDS011;64924;42.140;24.762;2023-11-22T03:35:06;35.38;;;19.50;;
73869;SDS011;64924;42.140;24.762;2023-11-22T03:37:32;38.55;;;20.48;;
73869;SDS011;64924;42.140;24.762;2023-11-22T03:39:59;33.72;;;18.38;;
73869;SDS011;64924;42.140;24.762;2023-11-22T03:42:24;33.13;;;19.13;;
73869;SDS011;64924;42.140;24.762;2023-11-22T03:44:51;30.23;;;18.73;;
73869;SDS011;64924;42.140;24.762;2023-11-22T03:47:17;35.15;;;19.02;;
73869;SDS011;64924;42.140;24.762;2023-11-22T03:49:42;32.97;;;20.38;;
73869;SDS011;64924;42.140;24.762;2023-11-22T03:52:09;45.45;;;21.90;;
73869;SDS011;64924;42.140;24.762;2023-11-22T03:54:36;36.35;;;20.33;;
73869;SDS011;64924;42.140;24.762;2023-11-22T03:57:02;38.95;;;19.58;;
73869;SDS011;64924;42.140;24.762;2023-11-22T03:59:28;36.83;;;21.58;;
73869;SDS011;64924;42.140;24.762;2023-11-22T04:01:54;35.70;;;20.10;;
73869;SDS011;64924;42.140;24.762;2023-11-22T04:04:19;34.72;;;20.52;;
73869;SDS011;64924;42.140;24.762;2023-11-22T04:06:45;36.60;;;20.92;;
73869;SDS011;64924;42.140;24.762;2023-11-22T04:09:11;30.67;;;18.20;;
73869;SDS011;64924;42.140;24.762;2023-11-22T04:11:39;32.38;;;19.58;;
73869;SDS011;64924;42.140;24.762;2023-11-22T04:14:05;31.20;;;19.42;;
73869;SDS011;64924;42.140;24.762;2023-11-22T04:16:31;32.30;;;20.23;;
73869;SDS011;64924;42.140;24.762;2023-11-22T04:18:57;37.10;;;19.75;;
73869;SDS011;64924;42.140;24.762;2023-11-22T04:21:22;32.03;;;19.17;;
73869;SDS011;64924;42.140;24.762;2023-11-22T04:23:49;33.70;;;21.70;;
73869;SDS011;64924;42.140;24.762;2023-11-22T04:26:14;37.95;;;20.45;;
73869;SDS011;64924;42.140;24.762;2023-11-22T04:28:41;36.17;;;20.02;;
73869;SDS011;64924;42.140;24.762;2023-11-22T04:31:07;34.60;;;20.20;;
73869;SDS011;64924;42.140;24.762;2023-11-22T04:33:34;33.85;;;19.95;;
73869;SDS011;64924;42.140;24.762;2023-11-22T04:35:59;30.15;;;19.00;;
73869;SDS011;64924;42.140;24.762;2023-11-22T04:38:25;41.55;;;20.40;;
73869;SDS011;64924;42.140;24.762;2023-11-22T04:40:51;33.63;;;19.35;;
73869;SDS011;64924;42.140;24.762;2023-11-22T04:43:17;30.75;;;17.40;;
73869;SDS011;64924;42.140;24.762;2023-11-22T04:45:42;31.48;;;19.10;;
73869;SDS011;64924;42.140;24.762;2023-11-22T04:48:08;33.97;;;18.70;;
73869;SDS011;64924;42.140;24.762;2023-11-22T04:50:34;32.55;;;19.88;;
73869;SDS011;64924;42.140;24.762;2023-11-22T04:53:00;31.83;;;19.33;;
73869;SDS011;64924;42.140;24.762;2023-11-22T04:55:29;36.50;;;20.33;;
73869;SDS011;64924;42.140;24.762;2023-11-22T04:57:55;40.15;;;19.15;;
73869;SDS011;64924;42.140;24.762;2023-11-22T05:00:21;30.98;;;18.95;;
73869;SDS011;64924;42.140;24.762;2023-11-22T05:02:48;34.03;;;19.58;;
73869;SDS011;64924;42.140;24.762;2023-11-22T05:05:13;37.30;;;19.48;;
73869;SDS011;64924;42.140;24.762;2023-11-22T05:07:39;32.05;;;18.40;;
73869;SDS011;64924;42.140;24.762;2023-11-22T05:10:05;31.65;;;18.88;;
73869;SDS011;64924;42.140;24.762;2023-11-22T05:12:33;37.92;;;18.67;;
73869;SDS011;64924;42.140;24.762;2023-11-22T05:14:58;34.58;;;17.92;;
73869;SDS011;64924;42.140;24.762;2023-11-22T05:17:24;32.45;;;17.63;;
73869;SDS011;64924;42.140;24.762;2023-11-22T05:19:49;30.38;;;16.92;;
73869;SDS011;64924;42.140;24.762;2023-11-22T05:22:16;25.00;;;16.08;;
73869;SDS011;64924;42.140;24.762;2023-11-22T05:24:42;30.00;;;16.67;;
73869;SDS011;64924;42.140;24.762;2023-11-22T05:27:08;24.45;;;15.27;;
73869;SDS011;64924;42.140;24.762;2023-11-22T05:29:34;25.65;;;16.42;;
73869;SDS011;64924;42.140;24.762;2023-11-22T05:32:00;26.67;;;15.00;;
73869;SDS011;64924;42.140;24.762;2023-11-22T05:34:26;28.30;;;15.75;;
73869;SDS011;64924;42.140;24.762;2023-11-22T05:36:52;26.10;;;14.88;;
73869;SDS011;64924;42.140;24.762;2023-11-22T05:39:17;27.50;;;15.05;;
73869;SDS011;64924;42.140;24.762;2023-11-22T05:41:43;24.00;;;15.98;;
73869;SDS011;64924;42.140;24.762;2023-11-22T05:44:09;23.55;;;14.77;;
73869;SDS011;64924;42.140;24.762;2023-11-22T05:46:34;32.35;;;16.17;;
73869;SDS011;64924;42.140;24.762;2023-11-22T05:49:00;25.67;;;14.82;;
73869;SDS011;64924;42.140;24.762;2023-11-22T05:51:25;30.23;;;15.15;;
73869;SDS011;64924;42.140;24.762;2023-11-22T05:53:51;22.45;;;13.65;;
73869;SDS011;64924;42.140;24.762;2023-11-22T05:56:17;27.67;;;15.45;;
73869;SDS011;64924;42.140;24.762;2023-11-22T05:58:43;23.50;;;15.43;;
73869;SDS011;64924;42.140;24.762;2023-11-22T06:01:08;27.00;;;15.95;;
73869;SDS011;64924;42.140;24.762;2023-11-22T06:03:35;21.63;;;15.15;;
73869;SDS011;64924;42.140;24.762;2023-11-22T06:06:01;25.70;;;14.73;;
73869;SDS011;64924;42.140;24.762;2023-11-22T06:08:28;32.08;;;15.68;;
73869;SDS011;64924;42.140;24.762;2023-11-22T06:10:53;28.30;;;15.38;;
73869;SDS011;64924;42.140;24.762;2023-11-22T06:13:22;26.45;;;16.50;;
73869;SDS011;64924;42.140;24.762;2023-11-22T06:15:47;27.60;;;16.48;;
73869;SDS011;64924;42.140;24.762;2023-11-22T06:18:13;30.02;;;15.85;;
73869;SDS011;64924;42.140;24.762;2023-11-22T06:20:40;25.42;;;16.20;;
73869;SDS011;64924;42.140;24.762;2023-11-22T06:23:06;30.25;;;16.40;;
73869;SDS011;64924;42.140;24.762;2023-11-22T06:25:31;24.73;;;16.88;;
73869;SDS011;64924;42.140;24.762;2023-11-22T06:27:57;32.65;;;17.10;;
73869;SDS011;64924;42.140;24.762;2023-11-22T06:30:22;30.63;;;15.70;;
73869;SDS011;64924;42.140;24.762;2023-11-22T06:32:50;32.60;;;16.05;;
73869;SDS011;64924;42.140;24.762;2023-11-22T06:35:16;27.95;;;14.90;;
73869;SDS011;64924;42.140;24.762;2023-11-22T06:37:42;29.17;;;16.17;;
73869;SDS011;64924;42.140;24.762;2023-11-22T06:40:09;30.67;;;15.25;;
73869;SDS011;64924;42.140;24.762;2023-11-22T06:42:37;25.98;;;15.23;;
73869;SDS011;64924;42.140;24.762;2023-11-22T06:45:04;37.72;;;16.67;;
73869;SDS011;64924;42.140;24.762;2023-11-22T06:47:31;29.80;;;16.08;;
73869;SDS011;64924;42.140;24.762;2023-11-22T06:49:57;23.48;;;15.40;;
73869;SDS011;64924;42.140;24.762;2023-11-22T06:52:23;25.70;;;13.73;;
73869;SDS011;64924;42.140;24.762;2023-11-22T06:54:49;24.20;;;14.77;;
73869;SDS011;64924;42.140;24.762;2023-11-22T06:57:14;28.33;;;16.90;;
73869;SDS011;64924;42.140;24.762;2023-11-22T06:59:41;26.08;;;16.33;;
73869;SDS011;64924;42.140;24.762;2023-11-22T07:02:06;28.88;;;18.20;;
73869;SDS011;64924;42.140;24.762;2023-11-22T07:04:32;33.80;;;17.95;;
73869;SDS011;64924;42.140;24.762;2023-11-22T07:06:58;36.13;;;18.08;;
73869;SDS011;64924;42.140;24.762;2023-11-22T07:09:23;37.47;;;19.63;;
73869;SDS011;64924;42.140;24.762;2023-11-22T07:11:50;29.65;;;19.35;;
73869;SDS011;64924;42.140;24.762;2023-11-22T07:14:16;28.92;;;18.25;;
73869;SDS011;64924;42.140;24.762;2023-11-22T07:16:42;29.38;;;17.77;;
73869;SDS011;64924;42.140;24.762;2023-11-22T07:19:07;34.33;;;18.48;;
73869;SDS011;64924;42.140;24.762;2023-11-22T07:21:33;28.00;;;17.75;;
73869;SDS011;64924;42.140;24.762;2023-11-22T07:24:02;22.80;;;14.23;;
73869;SDS011;64924;42.140;24.762;2023-11-22T07:26:28;29.23;;;17.13;;
73869;SDS011;64924;42.140;24.762;2023-11-22T07:28:55;31.98;;;17.83;;
73869;SDS011;64924;42.140;24.762;2023-11-22T07:31:20;30.02;;;16.88;;
73869;SDS011;64924;42.140;24.762;2023-11-22T07:33:47;31.33;;;17.80;;
73869;SDS011;64924;42.140;24.762;2023-11-22T07:36:13;35.08;;;18.48;;
73869;SDS011;64924;42.140;24.762;2023-11-22T07:38:40;49.03;;;17.75;;
73869;SDS011;64924;42.140;24.762;2023-11-22T07:41:06;29.35;;;17.05;;
73869;SDS011;64924;42.140;24.762;2023-11-22T07:43:35;35.80;;;18.83;;
73869;SDS011;64924;42.140;24.762;2023-11-22T07:46:04;31.60;;;17.38;;
73869;SDS011;64924;42.140;24.762;2023-11-22T07:48:33;37.78;;;18.58;;
73869;SDS011;64924;42.140;24.762;2023-11-22T07:51:02;35.20;;;20.77;;
73869;SDS011;64924;42.140;24.762;2023-11-22T07:53:28;38.13;;;22.08;;
73869;SDS011;64924;42.140;24.762;2023-11-22T07:55:54;44.60;;;22.88;;
73869;SDS011;64924;42.140;24.762;2023-11-22T07:58:21;48.13;;;24.52;;
73869;SDS011;64924;42.140;24.762;2023-11-22T08:00:46;46.83;;;25.50;;
73869;SDS011;64924;42.140;24.762;2023-11-22T08:03:12;49.40;;;28.33;;
73869;SDS011;64924;42.140;24.762;2023-11-22T08:05:40;61.70;;;29.23;;
73869;SDS011;64924;42.140;24.762;2023-11-22T08:08:05;49.35;;;26.45;;
73869;SDS011;64924;42.140;24.762;2023-11-22T08:13:01;47.05;;;25.45;;
73869;SDS011;64924;42.140;24.762;2023-11-22T08:15:28;48.08;;;25.60;;
73869;SDS011;64924;42.140;24.762;2023-11-22T08:17:54;48.10;;;27.02;;
73869;SDS011;64924;42.140;24.762;2023-11-22T08:20:19;57.13;;;27.45;;
73869;SDS011;64924;42.140;24.762;2023-11-22T08:22:45;55.75;;;28.38;;
73869;SDS011;64924;42.140;24.762;2023-11-22T08:25:10;49.65;;;28.25;;
73869;SDS011;64924;42.140;24.762;2023-11-22T08:27:38;48.20;;;27.67;;
73869;SDS011;64924;42.140;24.762;2023-11-22T08:30:06;44.75;;;27.00;;
73869;SDS011;64924;42.140;24.762;2023-11-22T08:32:34;50.92;;;26.55;;
73869;SDS011;64924;42.140;24.762;2023-11-22T08:35:00;50.15;;;25.85;;
73869;SDS011;64924;42.140;24.762;2023-11-22T08:37:26;49.45;;;24.88;;
73869;SDS011;64924;42.140;24.762;2023-11-22T08:39:51;47.83;;;25.48;;
73869;SDS011;64924;42.140;24.762;2023-11-22T08:42:17;55.67;;;32.25;;
73869;SDS011;64924;42.140;24.762;2023-11-22T08:44:43;50.70;;;29.05;;
73869;SDS011;64924;42.140;24.762;2023-11-22T08:47:08;55.78;;;29.00;;
73869;SDS011;64924;42.140;24.762;2023-11-22T08:49:34;42.75;;;25.60;;
73869;SDS011;64924;42.140;24.762;2023-11-22T08:51:59;46.50;;;26.23;;
73869;SDS011;64924;42.140;24.762;2023-11-22T08:54:27;58.58;;;28.88;;
73869;SDS011;64924;42.140;24.762;2023-11-22T08:56:54;48.83;;;28.08;;
73869;SDS011;64924;42.140;24.762;2023-11-22T08:59:21;52.85;;;29.85;;
73869;SDS011;64924;42.140;24.762;2023-11-22T09:01:47;54.85;;;31.70;;
73869;SDS011;64924;42.140;24.762;2023-11-22T09:04:12;53.95;;;28.00;;
73869;SDS011;64924;42.140;24.762;2023-11-22T09:06:38;48.08;;;26.92;;
73869;SDS011;64924;42.140;24.762;2023-11-22T09:09:04;56.33;;;27.65;;
73869;SDS011;64924;42.140;24.762;2023-11-22T09:11:30;47.63;;;27.02;;
73869;SDS011;64924;42.140;24.762;2023-11-22T09:13:56;42.10;;;25.40;;
73869;SDS011;64924;42.140;24.762;2023-11-22T09:16:22;46.03;;;26.05;;
73869;SDS011;64924;42.140;24.762;2023-11-22T09:18:50;37.20;;;24.20;;
73869;SDS011;64924;42.140;24.762;2023-11-22T09:21:16;38.78;;;22.77;;
73869;SDS011;64924;42.140;24.762;2023-11-22T09:23:44;39.53;;;22.20;;
73869;SDS011;64924;42.140;24.762;2023-11-22T09:26:10;33.22;;;20.17;;
73869;SDS011;64924;42.140;24.762;2023-11-22T09:28:36;46.35;;;23.05;;
73869;SDS011;64924;42.140;24.762;2023-11-22T09:31:01;43.70;;;25.02;;
73869;SDS011;64924;42.140;24.762;2023-11-22T09:33:31;31.75;;;17.10;;
73869;SDS011;64924;42.140;24.762;2023-11-22T09:35:56;44.40;;;23.88;;
73869;SDS011;64924;42.140;24.762;2023-11-22T09:38:23;44.65;;;22.55;;
73869;SDS011;64924;42.140;24.762;2023-11-22T09:40:49;38.15;;;21.67;;
73869;SDS011;64924;42.140;24.762;2023-11-22T09:43:17;30.88;;;20.40;;
73869;SDS011;64924;42.140;24.762;2023-11-22T09:45:45;28.83;;;19.77;;
73869;SDS011;64924;42.140;24.762;2023-11-22T09:48:17;31.13;;;19.83;;
73869;SDS011;64924;42.140;24.762;2023-11-22T09:53:40;31.27;;;18.98;;
73869;SDS011;64924;42.140;24.762;2023-11-22T09:56:25;34.25;;;20.98;;
73869;SDS011;64924;42.140;24.762;2023-11-22T09:58:52;35.28;;;18.98;;
73869;SDS011;64924;42.140;24.762;2023-11-22T10:01:22;36.03;;;20.40;;
73869;SDS011;64924;42.140;24.762;2023-11-22T10:03:48;34.03;;;19.48;;
73869;SDS011;64924;42.140;24.762;2023-11-22T10:06:14;42.90;;;20.80;;
73869;SDS011;64924;42.140;24.762;2023-11-22T10:08:41;34.35;;;19.95;;
73869;SDS011;64924;42.140;24.762;2023-11-22T10:11:07;39.88;;;22.73;;
73869;SDS011;64924;42.140;24.762;2023-11-22T10:13:32;30.63;;;19.13;;
73869;SDS011;64924;42.140;24.762;2023-11-22T10:16:12;30.42;;;17.38;;
73869;SDS011;64924;42.140;24.762;2023-11-22T10:18:44;22.08;;;15.25;;
73869;SDS011;64924;42.140;24.762;2023-11-22T10:24:04;25.02;;;16.05;;
73869;SDS011;64924;42.140;24.762;2023-11-22T10:26:34;24.65;;;16.13;;
73869;SDS011;64924;42.140;24.762;2023-11-22T10:29:01;27.85;;;17.00;;
73869;SDS011;64924;42.140;24.762;2023-11-22T10:31:27;33.53;;;18.40;;
73869;SDS011;64924;42.140;24.762;2023-11-22T10:33:53;30.92;;;19.55;;
73869;SDS011;64924;42.140;24.762;2023-11-22T10:36:21;33.20;;;20.15;;
73869;SDS011;64924;42.140;24.762;2023-11-22T10:38:47;30.60;;;20.33;;
73869;SDS011;64924;42.140;24.762;2023-11-22T10:41:13;34.83;;;21.27;;
73869;SDS011;64924;42.140;24.762;2023-11-22T10:43:39;36.03;;;20.58;;
73869;SDS011;64924;42.140;24.762;2023-11-22T10:46:07;32.40;;;20.88;;
73869;SDS011;64924;42.140;24.762;2023-11-22T10:48:36;35.78;;;19.55;;
73869;SDS011;64924;42.140;24.762;2023-11-22T10:51:03;31.85;;;20.35;;
73869;SDS011;64924;42.140;24.762;2023-11-22T10:53:31;38.70;;;19.60;;
73869;SDS011;64924;42.140;24.762;2023-11-22T10:56:04;27.60;;;18.52;;
73869;SDS011;64924;42.140;24.762;2023-11-22T10:58:36;29.70;;;18.25;;
73869;SDS011;64924;42.140;24.762;2023-11-22T11:01:10;25.90;;;18.30;;
73869;SDS011;64924;42.140;24.762;2023-11-22T11:03:37;27.33;;;17.67;;
73869;SDS011;64924;42.140;24.762;2023-11-22T11:06:07;29.95;;;19.15;;
73869;SDS011;64924;42.140;24.762;2023-11-22T11:08:36;32.72;;;18.40;;
73869;SDS011;64924;42.140;24.762;2023-11-22T11:11:04;30.67;;;17.52;;
73869;SDS011;64924;42.140;24.762;2023-11-22T11:13:31;30.20;;;16.58;;
73869;SDS011;64924;42.140;24.762;2023-11-22T11:15:57;23.38;;;16.45;;
73869;SDS011;64924;42.140;24.762;2023-11-22T11:18:23;26.05;;;16.33;;
73869;SDS011;64924;42.140;24.762;2023-11-22T11:20:55;24.63;;;15.32;;
73869;SDS011;64924;42.140;24.762;2023-11-22T11:23:22;24.92;;;15.25;;
73869;SDS011;64924;42.140;24.762;2023-11-22T11:25:50;21.95;;;14.27;;
73869;SDS011;64924;42.140;24.762;2023-11-22T11:28:18;22.10;;;14.05;;
73869;SDS011;64924;42.140;24.762;2023-11-22T11:30:45;22.95;;;14.77;;
73869;SDS011;64924;42.140;24.762;2023-11-22T11:33:13;23.73;;;13.60;;
73869;SDS011;64924;42.140;24.762;2023-11-22T11:36:01;22.38;;;14.57;;
73869;SDS011;64924;42.140;24.762;2023-11-22T11:38:31;17.40;;;13.35;;
73869;SDS011;64924;42.140;24.762;2023-11-22T11:41:06;21.63;;;14.23;;
73869;SDS011;64924;42.140;24.762;2023-11-22T11:43:43;22.10;;;14.52;;
73869;SDS011;64924;42.140;24.762;2023-11-22T11:46:13;21.48;;;14.57;;
73869;SDS011;64924;42.140;24.762;2023-11-22T11:48:58;23.73;;;13.43;;
73869;SDS011;64924;42.140;24.762;2023-11-22T11:51:27;21.30;;;13.82;;
73869;SDS011;64924;42.140;24.762;2023-11-22T11:53:56;19.83;;;13.18;;
73869;SDS011;64924;42.140;24.762;2023-11-22T11:56:22;19.42;;;13.07;;
73869;SDS011;64924;42.140;24.762;2023-11-22T11:58:51;24.20;;;13.23;;
73869;SDS011;64924;42.140;24.762;2023-11-22T12:01:17;19.70;;;13.07;;
73869;SDS011;64924;42.140;24.762;2023-11-22T12:03:46;22.40;;;13.20;;
73869;SDS011;64924;42.140;24.762;2023-11-22T12:06:16;24.00;;;12.90;;
73869;SDS011;64924;42.140;24.762;2023-11-22T12:08:42;20.65;;;12.52;;
73869;SDS011;64924;42.140;24.762;2023-11-22T12:11:08;22.75;;;12.93;;
73869;SDS011;64924;42.140;24.762;2023-11-22T12:13:35;24.67;;;13.70;;
73869;SDS011;64924;42.140;24.762;2023-11-22T12:16:08;23.10;;;15.13;;
73869;SDS011;64924;42.140;24.762;2023-11-22T12:18:48;25.30;;;15.50;;
73869;SDS011;64924;42.140;24.762;2023-11-22T12:21:15;22.77;;;14.82;;
73869;SDS011;64924;42.140;24.762;2023-11-22T12:23:44;27.33;;;14.60;;
73869;SDS011;64924;42.140;24.762;2023-11-22T12:26:12;25.08;;;16.30;;
73869;SDS011;64924;42.140;24.762;2023-11-22T12:28:44;23.95;;;15.00;;
73869;SDS011;64924;42.140;24.762;2023-11-22T12:31:11;28.05;;;16.73;;
73869;SDS011;64924;42.140;24.762;2023-11-22T12:33:39;21.95;;;16.02;;
73869;SDS011;64924;42.140;24.762;2023-11-22T12:36:06;25.15;;;15.98;;
73869;SDS011;64924;42.140;24.762;2023-11-22T12:38:34;22.73;;;14.27;;
73869;SDS011;64924;42.140;24.762;2023-11-22T12:41:00;20.58;;;13.32;;
73869;SDS011;64924;42.140;24.762;2023-11-22T12:43:28;19.55;;;14.07;;
73869;SDS011;64924;42.140;24.762;2023-11-22T12:46:03;25.17;;;14.57;;
73869;SDS011;64924;42.140;24.762;2023-11-22T12:48:40;22.83;;;15.13;;
73869;SDS011;64924;42.140;24.762;2023-11-22T12:51:16;21.58;;;14.25;;
73869;SDS011;64924;42.140;24.762;2023-11-22T12:53:45;26.75;;;14.52;;
73869;SDS011;64924;42.140;24.762;2023-11-22T12:56:11;21.27;;;14.45;;
73869;SDS011;64924;42.140;24.762;2023-11-22T12:58:36;21.50;;;14.52;;
73869;SDS011;64924;42.140;24.762;2023-11-22T13:01:02;23.58;;;13.55;;
73869;SDS011;64924;42.140;24.762;2023-11-22T13:03:28;23.75;;;13.80;;
73869;SDS011;64924;42.140;24.762;2023-11-22T13:05:53;24.40;;;13.90;;
73869;SDS011;64924;42.140;24.762;2023-11-22T13:08:20;19.20;;;13.20;;
73869;SDS011;64924;42.140;24.762;2023-11-22T13:10:47;21.67;;;14.30;;
73869;SDS011;64924;42.140;24.762;2023-11-22T13:13:21;19.88;;;13.43;;
73869;SDS011;64924;42.140;24.762;2023-11-22T13:15:47;23.70;;;14.73;;
73869;SDS011;64924;42.140;24.762;2023-11-22T13:18:14;20.67;;;13.98;;
73869;SDS011;64924;42.140;24.762;2023-11-22T13:20:41;23.00;;;14.13;;
73869;SDS011;64924;42.140;24.762;2023-11-22T13:23:07;22.65;;;14.05;;
73869;SDS011;64924;42.140;24.762;2023-11-22T13:25:33;18.42;;;13.35;;
73869;SDS011;64924;42.140;24.762;2023-11-22T13:27:58;25.55;;;14.80;;
73869;SDS011;64924;42.140;24.762;2023-11-22T13:30:24;29.02;;;16.63;;
73869;SDS011;64924;42.140;24.762;2023-11-22T13:32:50;30.23;;;17.48;;
73869;SDS011;64924;42.140;24.762;2023-11-22T13:35:21;26.02;;;15.20;;
73869;SDS011;64924;42.140;24.762;2023-11-22T13:37:47;22.67;;;16.02;;
73869;SDS011;64924;42.140;24.762;2023-11-22T13:40:14;24.50;;;14.90;;
73869;SDS011;64924;42.140;24.762;2023-11-22T13:42:42;23.98;;;14.18;;
73869;SDS011;64924;42.140;24.762;2023-11-22T13:45:10;23.55;;;14.88;;
73869;SDS011;64924;42.140;24.762;2023-11-22T13:47:40;24.77;;;14.48;;
73869;SDS011;64924;42.140;24.762;2023-11-22T13:50:09;27.50;;;17.77;;
73869;SDS011;64924;42.140;24.762;2023-11-22T13:52:35;22.60;;;17.08;;
73869;SDS011;64924;42.140;24.762;2023-11-22T13:55:00;26.10;;;14.68;;
73869;SDS011;64924;42.140;24.762;2023-11-22T13:57:28;23.67;;;14.60;;
73869;SDS011;64924;42.140;24.762;2023-11-22T13:59:56;25.17;;;16.20;;
73869;SDS011;64924;42.140;24.762;2023-11-22T14:02:22;25.63;;;15.25;;
73869;SDS011;64924;42.140;24.762;2023-11-22T14:04:47;25.60;;;16.38;;
73869;SDS011;64924;42.140;24.762;2023-11-22T14:07:13;21.40;;;14.45;;
73869;SDS011;64924;42.140;24.762;2023-11-22T14:09:38;24.25;;;14.93;;
73869;SDS011;64924;42.140;24.762;2023-11-22T14:12:04;24.60;;;15.90;;
73869;SDS011;64924;42.140;24.762;2023-11-22T14:14:30;22.92;;;15.45;;
73869;SDS011;64924;42.140;24.762;2023-11-22T14:16:55;21.77;;;15.52;;